Time;durP1;ratioP1;P1;durP2;ratioP2;P2;SDS_P1;SDS_P2;PMS_P1;PMS_P2;Temp;Humidity;BMP_temperature;BMP_pressure;BME280_temperature;BME280_humidity;BME280_pressure;Samples;Min_cycle;Max_cycle;Signal;HPM_P1;HPM_P2
2022/06/14 00:06:39;;;;;;;;;5.00;4.75;;;;;21.65;40.45;101490.00;5056066;28;45468;-85
2022/06/14 00:09:05;;;;;;;;;7.00;6.00;;;;;21.61;40.85;101485.16;5056544;28;45664;-88
2022/06/14 00:11:34;;;;;;;;;6.50;6.00;;;;;21.61;40.58;101485.16;5056676;28;46339;-85
2022/06/14 00:14:01;;;;;;;;;6.25;5.50;;;;;21.58;40.27;101480.16;5057657;28;45919;-85
2022/06/14 00:16:28;;;;;;;;;8.75;6.75;;;;;21.58;40.48;101488.16;5037867;28;45618;-86
2022/06/14 00:18:54;;;;;;;;;5.75;5.75;;;;;21.54;40.10;101482.28;5055991;28;45683;-83
2022/06/14 00:21:20;;;;;;;;;7.25;6.50;;;;;21.44;40.63;101473.56;5056291;28;46519;-88
2022/06/14 00:23:46;;;;;;;;;5.50;5.50;;;;;21.46;40.19;101478.75;5056658;28;45978;-89
2022/06/14 00:26:12;;;;;;;;;6.50;6.50;;;;;21.47;39.71;101486.59;5056886;28;45664;-89
2022/06/14 00:28:39;;;;;;;;;5.50;5.00;;;;;21.42;40.17;101485.41;5056362;28;45390;-89
2022/06/14 00:31:12;;;;;;;;;5.00;5.00;;;;;21.35;40.18;101472.69;5056126;28;47073;-87
2022/06/14 00:33:37;;;;;;;;;5.00;5.00;;;;;21.38;40.65;101492.84;5056566;28;46571;-89
2022/06/14 00:36:09;;;;;;;;;6.25;5.25;;;;;21.31;40.30;101478.50;5056413;28;46020;-85
2022/06/14 00:38:36;;;;;;;;;6.00;6.00;;;;;21.31;40.53;101491.84;5038424;28;45510;-89
2022/06/14 00:41:04;;;;;;;;;6.00;5.50;;;;;21.25;40.29;101485.28;5038236;28;46594;-88
2022/06/14 00:43:30;;;;;;;;;5.50;4.50;;;;;21.25;40.40;101487.13;5042002;28;48082;-88
2022/06/14 00:52:47;;;;;;;;;5.00;5.00;;;;;21.11;41.13;101491.13;5056333;28;45830;-88
2022/06/14 00:55:20;;;;;;;;;5.50;4.50;;;;;21.00;40.79;101463.94;5056450;28;46412;-90
2022/06/14 00:57:58;;;;;;;;;5.00;4.00;;;;;21.04;40.66;101475.94;5056440;28;45640;-89
2022/06/14 01:00:31;;;;;;;;;6.00;6.00;;;;;21.05;40.93;101475.81;5056466;28;45519;-89
2022/06/14 01:03:03;;;;;;;;;5.00;5.00;;;;;20.96;40.73;101460.72;5054956;28;48568;-89
2022/06/14 01:08:27;;;;;;;;;6.00;5.25;;;;;20.86;41.15;101466.16;5063790;28;45633;-87
2022/06/14 01:10:53;;;;;;;;;4.50;4.50;;;;;20.93;41.16;101479.69;5062325;28;45589;-87
2022/06/14 01:13:21;;;;;;;;;4.00;4.00;;;;;20.78;41.10;101458.09;5055519;28;45557;-89
2022/06/14 01:15:54;;;;;;;;;5.00;4.25;;;;;20.87;41.20;101477.66;5055770;28;46313;-88
2022/06/14 01:18:22;;;;;;;;;4.50;4.50;;;;;20.83;41.19;101477.13;5055524;28;45510;-89
2022/06/14 01:20:47;;;;;;;;;4.25;4.25;;;;;20.83;41.26;101474.47;5055860;28;45472;-88
2022/06/14 01:23:16;;;;;;;;;4.50;3.75;;;;;20.77;41.27;101467.09;5037672;28;48291;-86
2022/06/14 01:25:47;;;;;;;;;3.75;3.75;;;;;20.73;41.27;101464.88;5056895;28;46259;-88
2022/06/14 01:28:15;;;;;;;;;5.00;4.50;;;;;20.74;41.49;101467.38;5055868;28;45516;-88
2022/06/14 01:30:45;;;;;;;;;5.00;4.00;;;;;20.72;41.37;101465.88;5055500;28;45581;-88
2022/06/14 01:33:24;;;;;;;;;4.25;3.75;;;;;20.69;41.60;101468.81;5056454;28;45767;-89
2022/06/14 01:35:57;;;;;;;;;3.75;3.00;;;;;20.61;41.84;101458.97;5058215;28;46310;-88
2022/06/14 01:38:22;;;;;;;;;4.75;3.75;;;;;20.59;41.57;101463.59;5058575;28;45843;-88
2022/06/14 01:41:09;;;;;;;;;4.25;4.25;;;;;20.57;41.64;101465.56;5058598;28;45684;-86
2022/06/14 01:44:00;;;;;;;;;5.75;4.50;;;;;20.45;41.83;101451.66;5059250;28;45721;-87
2022/06/14 01:46:44;;;;;;;;;3.25;3.25;;;;;20.48;42.11;101455.84;5043196;28;48097;-86
2022/06/14 01:52:30;;;;;;;;;4.50;4.50;;;;;20.39;42.15;101443.44;5060607;28;45460;-88
2022/06/14 01:55:18;;;;;;;;;5.00;4.25;;;;;20.37;42.03;101445.41;5040238;28;48128;-87
2022/06/14 01:58:02;;;;;;;;;3.00;3.00;;;;;20.34;42.22;101435.06;5058555;28;46010;-86
2022/06/14 02:00:33;;;;;;;;;5.00;4.00;;;;;20.27;42.29;101432.16;5058020;28;45597;-87
2022/06/14 02:06:31;;;;;;;;;5.00;4.00;;;;;20.18;42.38;101424.25;5060484;28;45743;-89
2022/06/14 02:09:14;;;;;;;;;3.00;3.00;;;;;20.10;42.11;101404.53;5060453;28;46319;-86
2022/06/14 02:11:40;;;;;;;;;4.00;4.00;;;;;20.17;42.48;101420.75;5060393;28;45512;-88
2022/06/14 02:14:15;;;;;;;;;4.50;3.25;;;;;20.16;42.48;101424.38;5060516;28;45636;-86
2022/06/14 02:16:52;;;;;;;;;3.00;3.00;;;;;20.10;42.59;101420.50;5063256;28;45424;-87
2022/06/14 02:22:45;;;;;;;;;3.75;3.00;;;;;20.07;42.58;101423.47;5062353;28;45684;-85
2022/06/14 02:25:28;;;;;;;;;4.00;3.25;;;;;20.05;42.50;101421.94;5061039;28;45739;-87
2022/06/14 02:28:02;;;;;;;;;3.00;3.00;;;;;19.97;42.92;101416.53;5057757;28;45702;-82
2022/06/14 02:30:35;;;;;;;;;2.00;2.00;;;;;19.95;42.91;101415.84;5057845;28;45850;-84
2022/06/14 02:33:05;;;;;;;;;4.00;4.00;;;;;19.91;42.98;101409.16;5057771;28;45510;-85
2022/06/14 02:35:40;;;;;;;;;3.00;2.00;;;;;19.93;42.82;101420.47;5056863;28;45570;-85
2022/06/14 02:38:15;;;;;;;;;2.00;2.00;;;;;19.79;43.06;101397.88;5063653;28;46809;-82
2022/06/14 02:41:03;;;;;;;;;4.00;2.50;;;;;19.82;42.86;101412.69;5063674;28;45528;-82
2022/06/14 02:43:41;;;;;;;;;3.00;3.00;;;;;19.76;42.91;101413.31;5058266;28;45467;-88
2022/06/14 02:46:18;;;;;;;;;4.25;3.00;;;;;19.70;43.08;101406.78;5056633;28;45493;-88
2022/06/14 02:48:52;;;;;;;;;3.00;3.00;;;;;19.74;43.14;101404.63;5056943;28;45565;-86
2022/06/14 02:51:39;;;;;;;;;2.50;2.50;;;;;19.68;43.23;101390.13;5056883;28;45902;-87
2022/06/14 02:54:10;;;;;;;;;3.00;2.75;;;;;19.67;43.28;101391.09;5056262;28;45753;-87
2022/06/14 02:56:47;;;;;;;;;2.75;2.75;;;;;19.80;43.10;101420.00;5056647;28;45682;-86
2022/06/14 02:59:33;;;;;;;;;1.25;1.25;;;;;19.77;43.36;101402.50;5056125;28;45681;-80
2022/06/14 03:02:03;;;;;;;;;3.50;3.25;;;;;19.70;43.22;101404.09;5056083;28;45684;-82
2022/06/14 03:04:38;;;;;;;;;3.25;3.25;;;;;19.71;43.48;101408.41;5055678;28;45784;-81
2022/06/14 03:07:12;;;;;;;;;2.25;2.00;;;;;19.67;43.27;101412.38;5056079;28;45470;-81
2022/06/14 03:09:41;;;;;;;;;3.00;3.00;;;;;19.63;43.26;101400.34;5055746;28;46572;-81
2022/06/14 03:12:36;;;;;;;;;3.00;3.00;;;;;19.58;43.67;101408.78;5057265;28;45921;-85
2022/06/14 03:15:39;;;;;;;;;3.25;2.25;;;;;19.54;43.54;101407.38;5056930;28;45754;-87
2022/06/14 03:21:59;;;;;;;;;4.25;4.00;;;;;19.47;43.95;101394.84;5056645;28;45602;-88
2022/06/14 03:24:32;;;;;;;;;3.25;3.00;;;;;19.47;44.34;101402.81;5056498;28;45890;-87
2022/06/14 03:27:13;;;;;;;;;3.50;3.00;;;;;19.42;44.26;101400.56;5056766;28;45590;-83
2022/06/14 03:30:08;;;;;;;;;2.75;2.75;;;;;19.43;44.26;101406.72;5038520;28;45713;-86
2022/06/14 03:32:54;;;;;;;;;3.00;3.00;;;;;19.36;44.20;101397.66;5057016;28;46639;-87
2022/06/14 03:39:02;;;;;;;;;3.00;3.00;;;;;19.27;44.21;101386.91;5055336;28;45663;-84
2022/06/14 03:41:31;;;;;;;;;4.00;3.00;;;;;19.32;44.58;101396.28;5038436;28;45535;-89
2022/06/14 03:44:00;;;;;;;;;3.00;3.00;;;;;19.31;44.42;101392.78;5056641;28;45702;-89
2022/06/14 03:46:31;;;;;;;;;5.00;3.00;;;;;19.28;44.42;101387.75;5058524;28;46416;-88
2022/06/14 03:49:20;;;;;;;;;4.25;3.00;;;;;19.31;44.34;101384.81;5060024;28;45740;-88
2022/06/14 03:51:51;;;;;;;;;4.00;4.00;;;;;19.28;44.77;101385.94;5039307;28;45539;-86
2022/06/14 03:54:26;;;;;;;;;4.25;3.00;;;;;19.25;44.88;101391.56;5057483;28;46766;-87
2022/06/14 03:57:10;;;;;;;;;4.00;3.25;;;;;19.23;45.12;101395.31;5057198;28;46157;-86
2022/06/14 03:59:59;;;;;;;;;4.75;3.00;;;;;19.21;44.92;101395.50;5039174;28;45850;-86
2022/06/14 04:02:54;;;;;;;;;3.75;3.50;;;;;19.10;45.22;101368.25;5056440;28;45557;-89
2022/06/14 04:05:31;;;;;;;;;2.50;2.50;;;;;19.16;45.33;101394.25;5056080;28;45582;-84
2022/06/14 04:08:16;;;;;;;;;4.75;3.00;;;;;19.14;44.82;101393.53;5037828;28;48194;-87
2022/06/14 04:10:51;;;;;;;;;4.00;3.25;;;;;19.02;45.31;101376.09;5055756;28;45491;-87
2022/06/14 04:13:51;;;;;;;;;4.50;4.00;;;;;19.13;45.05;101394.53;5037677;28;45542;-89
2022/06/14 04:16:31;;;;;;;;;5.00;4.00;;;;;19.11;45.11;101386.69;5056144;28;45828;-86
2022/06/14 04:23:05;;;;;;;;;5.75;4.00;;;;;19.13;45.06;101391.88;5059062;28;45732;-89
2022/06/14 04:26:19;;;;;;;;;3.75;3.00;;;;;19.14;45.53;101394.38;5056631;28;45841;-87
2022/06/14 04:28:55;;;;;;;;;4.00;3.50;;;;;19.12;45.40;101395.50;5049967;28;46443;-88
2022/06/14 04:31:31;;;;;;;;;3.00;3.00;;;;;19.13;45.00;101394.53;5037084;28;47515;-89
2022/06/14 04:34:16;;;;;;;;;2.75;2.00;;;;;19.06;45.32;101378.31;5055289;28;45673;-89
2022/06/14 04:36:45;;;;;;;;;3.75;3.75;;;;;19.12;45.33;101390.19;5055580;28;45705;-87
2022/06/14 04:39:19;;;;;;;;;3.50;3.00;;;;;19.12;45.63;101387.53;5037486;28;45726;-86
2022/06/14 04:42:04;;;;;;;;;4.00;4.00;;;;;19.09;45.22;101382.53;5036188;28;45500;-81
2022/06/14 04:44:37;;;;;;;;;4.00;4.00;;;;;19.13;45.42;101382.06;5047703;28;45631;-83
2022/06/14 04:54:13;;;;;;;;;4.00;3.75;;;;;19.07;45.35;101384.47;4879268;29;45824;-89
2022/06/14 04:56:51;;;;;;;;;3.25;3.25;;;;;18.94;45.32;101365.38;4879717;29;45673;-89
2022/06/14 04:59:25;;;;;;;;;5.75;4.00;;;;;19.07;45.78;101387.97;4882797;29;45661;-90
2022/06/14 05:01:57;;;;;;;;;4.00;4.00;;;;;19.03;45.40;101383.09;4882024;29;46866;-90
2022/06/14 05:07:49;;;;;;;;;3.50;3.50;;;;;19.07;45.97;101384.47;4880393;29;45634;-87
2022/06/14 05:10:27;;;;;;;;;1.00;1.00;;;;;19.06;45.82;101380.97;4883034;29;45694;-89
2022/06/14 05:13:14;;;;;;;;;3.50;3.50;;;;;19.05;45.92;101379.31;4883325;29;46821;-90
2022/06/14 05:15:45;;;;;;;;;4.25;4.25;;;;;19.06;45.40;101380.97;4884442;29;45871;-88
2022/06/14 05:18:39;;;;;;;;;5.75;4.00;;;;;19.08;45.64;101381.69;4885050;29;45689;-89
2022/06/14 05:24:27;;;;;;;;;4.50;3.50;;;;;19.05;45.53;101376.66;4882796;28;45765;-89
2022/06/14 05:27:17;;;;;;;;;4.00;4.00;;;;;19.11;45.21;101384.03;4924307;28;46038;-90
2022/06/14 05:30:10;;;;;;;;;4.00;4.00;;;;;19.14;45.57;101380.25;4950199;28;45637;-89
2022/06/14 05:32:48;;;;;;;;;4.25;4.00;;;;;19.09;45.96;101367.41;5048574;28;45477;-87
2022/06/14 05:35:17;;;;;;;;;5.50;4.75;;;;;19.16;45.41;101375.66;5042500;28;45575;-85
2022/06/14 05:38:09;;;;;;;;;4.50;4.50;;;;;19.07;45.76;101366.72;5042440;28;46062;-89
2022/06/14 05:40:43;;;;;;;;;5.50;5.00;;;;;19.14;45.50;101377.59;5026988;28;45592;-88
2022/06/14 05:43:25;;;;;;;;;3.25;3.00;;;;;19.18;45.67;101382.47;5040301;28;45723;-88
2022/06/14 05:45:59;;;;;;;;;4.00;3.50;;;;;19.22;45.59;101386.50;5021448;28;47968;-89
2022/06/14 05:48:30;;;;;;;;;4.00;4.00;;;;;19.18;45.67;101385.13;5040856;28;46558;-87
2022/06/14 05:50:58;;;;;;;;;5.00;5.00;;;;;19.23;45.61;101388.19;5041216;28;45687;-86
2022/06/14 05:53:43;;;;;;;;;5.00;5.00;;;;;19.18;45.92;101373.66;5040379;28;45719;-89
2022/06/14 05:56:42;;;;;;;;;6.00;5.00;;;;;19.33;45.71;101397.94;5041189;28;46742;-85
2022/06/14 05:59:21;;;;;;;;;4.75;4.75;;;;;19.31;45.72;101383.97;5044350;28;46418;-85
2022/06/14 06:01:55;;;;;;;;;5.50;4.00;;;;;19.33;45.21;101380.16;5025780;28;46124;-86
2022/06/14 06:04:33;;;;;;;;;4.00;4.00;;;;;19.36;45.13;101389.69;5044149;28;45608;-88
2022/06/14 06:07:06;;;;;;;;;1.75;1.75;;;;;19.39;45.25;101381.41;5041453;28;45782;-85
2022/06/14 06:09:40;;;;;;;;;4.25;4.25;;;;;19.32;45.31;101369.72;5039935;28;46782;-90
2022/06/14 06:12:17;;;;;;;;;5.00;4.00;;;;;19.41;45.53;101384.75;5041293;28;45713;-83
2022/06/14 06:14:50;;;;;;;;;9.75;7.00;;;;;19.42;45.10;101381.13;5042435;28;45560;-81
2022/06/14 06:17:20;;;;;;;;;4.50;4.50;;;;;19.44;44.98;101379.13;5041376;28;46539;-89
2022/06/14 06:20:01;;;;;;;;;5.25;4.50;;;;;19.49;45.24;101376.91;5036244;28;45968;-87
2022/06/14 06:22:39;;;;;;;;;4.25;4.00;;;;;19.52;45.36;101380.13;5037158;28;45548;-86
2022/06/14 06:25:14;;;;;;;;;5.75;5.25;;;;;19.51;45.44;101372.28;5036572;28;45693;-82
2022/06/14 06:27:47;;;;;;;;;5.00;5.00;;;;;19.58;44.89;101370.72;5036097;28;46608;-82
2022/06/14 06:30:48;;;;;;;;;7.00;6.00;;;;;19.63;44.63;101369.28;5035350;28;45966;-82
2022/06/14 06:33:16;;;;;;;;;5.50;4.75;;;;;19.62;44.80;101359.63;4955086;28;45679;-82
2022/06/14 06:39:36;;;;;;;;;5.00;5.00;;;;;19.74;44.86;101362.09;4978840;28;46233;-82
2022/06/14 06:42:23;;;;;;;;;6.75;6.00;;;;;19.76;44.99;101360.94;4994221;28;46381;-83
2022/06/14 06:44:58;;;;;;;;;4.00;4.00;;;;;19.80;44.98;101361.50;4994299;28;45776;-82
2022/06/14 06:47:28;;;;;;;;;6.00;5.50;;;;;19.79;44.88;101362.47;4994748;28;45648;-83
2022/06/14 06:50:08;;;;;;;;;6.75;5.75;;;;;19.87;44.87;101371.38;4994130;28;46355;-83
2022/06/14 06:52:42;;;;;;;;;5.50;4.75;;;;;19.91;44.72;101369.25;4994170;28;45961;-83
2022/06/14 06:55:14;;;;;;;;;6.50;6.00;;;;;19.94;44.60;101358.31;5010548;28;45809;-84
2022/06/14 06:57:44;;;;;;;;;5.00;5.00;;;;;19.91;44.40;101350.66;4977596;28;45655;-84
2022/06/14 07:00:13;;;;;;;;;6.50;5.75;;;;;19.97;44.54;101356.16;4993966;28;46906;-83
2022/06/14 07:02:48;;;;;;;;;6.00;5.00;;;;;20.02;44.75;101347.75;4993820;28;45820;-82
2022/06/14 07:05:17;;;;;;;;;6.00;5.50;;;;;20.10;44.63;101361.13;4995244;28;45713;-80
2022/06/14 07:07:42;;;;;;;;;5.00;5.00;;;;;20.18;44.64;101366.53;4976526;28;45776;-81
2022/06/14 07:10:07;;;;;;;;;5.00;5.00;;;;;20.23;44.27;101371.41;5006978;28;47516;-81
2022/06/14 07:12:47;;;;;;;;;6.75;4.00;;;;;20.25;44.65;101350.78;5035070;28;45679;-80
2022/06/14 07:15:27;;;;;;;;;5.00;5.00;;;;;20.29;44.44;101347.69;5034978;28;45781;-81
2022/06/14 07:18:06;;;;;;;;;6.50;5.75;;;;;20.33;44.34;101348.22;5016420;28;45694;-80
2022/06/14 07:20:34;;;;;;;;;5.50;5.00;;;;;20.39;44.29;101352.94;5034428;28;45708;-81
2022/06/14 07:23:18;;;;;;;;;4.75;4.75;;;;;20.40;44.37;101342.13;5034523;28;45568;-80
2022/06/14 07:25:53;;;;;;;;;5.00;5.00;;;;;20.48;43.94;101355.50;5034743;28;45720;-80
2022/06/14 07:28:28;;;;;;;;;5.00;5.00;;;;;20.44;44.00;101330.19;5034615;28;45589;-80
2022/06/14 07:31:00;;;;;;;;;7.75;5.00;;;;;20.47;43.81;101327.19;5034127;28;45698;-80
2022/06/14 07:33:28;;;;;;;;;5.00;4.75;;;;;20.59;44.02;101342.91;5034535;28;45998;-80
2022/06/14 07:38:49;;;;;;;;;6.50;4.75;;;;;20.64;44.03;101322.81;5042161;28;45871;-79
2022/06/14 07:41:25;;;;;;;;;6.25;5.50;;;;;20.74;43.82;101338.69;5055205;28;45936;-81
2022/06/14 07:44:20;;;;;;;;;6.50;5.25;;;;;20.81;44.04;101339.75;5054947;28;46270;-81
2022/06/14 07:46:59;;;;;;;;;5.00;4.25;;;;;20.70;43.89;101314.22;5052492;28;45883;-82
2022/06/14 07:49:46;;;;;;;;;3.75;3.75;;;;;20.86;43.33;101340.09;5054751;28;45550;-81
2022/06/14 07:55:46;;;;;;;;;3.25;3.25;;;;;20.88;43.39;101328.31;5054413;28;45904;-81
2022/06/14 07:58:25;;;;;;;;;5.50;4.50;;;;;20.97;43.51;101333.66;5054339;28;45481;-79
2022/06/14 08:01:09;;;;;;;;;5.00;5.00;;;;;21.01;42.88;101332.34;5054908;28;45566;-82
2022/06/14 08:04:15;;;;;;;;;8.00;5.50;;;;;21.04;42.88;101324.06;5054692;28;45734;-83
2022/06/14 08:06:46;;;;;;;;;5.75;4.75;;;;;21.07;42.92;101331.72;4975805;28;47342;-85
2022/06/14 08:09:37;;;;;;;;;5.75;5.75;;;;;21.10;42.90;101323.44;4992507;28;45517;-86
2022/06/14 08:12:20;;;;;;;;;5.50;5.25;;;;;21.04;42.00;101303.56;4995624;28;45928;-85
2022/06/14 08:15:10;;;;;;;;;4.00;3.00;;;;;21.15;42.55;101310.47;4994024;28;45936;-86
2022/06/14 08:17:41;;;;;;;;;7.25;6.00;;;;;21.17;42.32;101308.47;4995252;28;45892;-87
2022/06/14 08:20:22;;;;;;;;;6.50;5.25;;;;;21.18;42.35;101305.66;4995804;28;45716;-87
2022/06/14 08:22:53;;;;;;;;;6.75;5.25;;;;;21.20;42.27;101302.84;4995262;28;45580;-86
2022/06/14 08:25:23;;;;;;;;;5.00;4.50;;;;;21.23;42.06;101294.50;4998014;28;46632;-87
2022/06/14 08:28:02;;;;;;;;;7.25;5.75;;;;;21.29;42.13;101307.19;4996550;28;45518;-87
2022/06/14 08:30:32;;;;;;;;;5.75;5.00;;;;;21.35;42.41;101304.72;4998325;28;45776;-87
2022/06/14 08:33:08;;;;;;;;;6.75;6.25;;;;;21.40;42.43;101308.72;4999149;28;45560;-83
2022/06/14 08:35:44;;;;;;;;;6.00;4.50;;;;;21.38;42.29;101300.06;5001610;28;45637;-87
2022/06/14 08:38:15;;;;;;;;;6.00;5.00;;;;;21.48;41.81;101298.09;5000522;28;45615;-86
2022/06/14 08:41:17;;;;;;;;;4.00;4.00;;;;;21.55;41.97;101304.44;5023689;28;45696;-82
2022/06/14 08:43:52;;;;;;;;;6.00;4.75;;;;;21.52;41.89;101292.28;5036066;28;45991;-78
2022/06/14 08:46:41;;;;;;;;;5.50;4.50;;;;;21.58;41.97;101288.13;5038057;28;45751;-81
2022/06/14 08:49:10;;;;;;;;;5.00;4.25;;;;;21.67;40.96;101290.63;5037540;28;46290;-81
2022/06/14 08:55:09;;;;;;;;;5.00;4.25;;;;;21.75;41.67;101297.84;5038531;28;45567;-81
2022/06/14 08:57:37;;;;;;;;;5.75;4.75;;;;;21.82;41.82;101293.47;5037357;28;45737;-80
2022/06/14 09:00:22;;;;;;;;;4.75;4.50;;;;;21.87;41.43;101285.81;5037659;28;46037;-82
2022/06/14 09:03:15;;;;;;;;;7.00;4.75;;;;;21.94;41.17;101291.31;5039190;28;45560;-81
2022/06/14 09:05:49;;;;;;;;;6.00;4.75;;;;;21.98;41.17;101296.19;5042531;28;45575;-81
2022/06/14 09:11:42;;;;;;;;;5.50;5.00;;;;;22.04;40.61;101284.03;5037633;28;45735;-81
2022/06/14 09:14:43;;;;;;;;;5.25;5.00;;;;;22.06;40.42;101290.88;5037222;28;45563;-82
2022/06/14 09:17:33;;;;;;;;;4.50;4.25;;;;;22.09;40.23;101293.19;5037167;28;45559;-81
2022/06/14 09:20:10;;;;;;;;;4.25;4.00;;;;;22.10;40.52;101283.34;5036924;28;46595;-80
2022/06/14 09:23:00;;;;;;;;;5.75;5.00;;;;;22.17;40.49;101292.38;5018581;28;47109;-81
2022/06/14 09:25:25;;;;;;;;;5.00;4.00;;;;;22.23;40.13;101285.53;5037400;28;45684;-81
2022/06/14 09:27:54;;;;;;;;;5.00;4.25;;;;;22.28;40.20;101286.69;5037308;28;45796;-81
2022/06/14 09:30:46;;;;;;;;;5.25;4.00;;;;;22.24;40.20;101268.50;5018912;28;47376;-82
2022/06/14 09:33:14;;;;;;;;;4.25;3.75;;;;;22.38;39.39;101276.66;5036748;28;45643;-82
2022/06/14 09:35:47;;;;;;;;;7.00;4.00;;;;;22.43;39.11;101273.47;5037398;28;45495;-81
2022/06/14 09:38:47;;;;;;;;;6.00;6.00;;;;;22.45;38.88;101282.16;5037135;28;46107;-81
2022/06/14 09:41:44;;;;;;;;;5.00;5.00;;;;;22.47;39.74;101280.97;4975016;28;45535;-81
2022/06/14 09:44:34;;;;;;;;;4.25;4.00;;;;;22.52;38.81;101281.31;4975043;28;45609;-82
2022/06/14 09:47:00;;;;;;;;;6.25;5.00;;;;;22.53;38.35;101277.63;4958691;28;45567;-82
2022/06/14 09:50:00;;;;;;;;;4.25;4.00;;;;;22.55;38.27;101277.47;4975428;28;45788;-82
2022/06/14 09:55:56;;;;;;;;;4.50;4.50;;;;;22.60;39.13;101278.63;4974938;28;45841;-81
2022/06/14 09:58:57;;;;;;;;;5.00;4.00;;;;;22.63;38.90;101274.75;4975018;28;45580;-81
2022/06/14 10:01:23;;;;;;;;;5.00;5.00;;;;;22.62;38.61;101269.63;4975183;28;45862;-80
2022/06/14 10:03:54;;;;;;;;;4.75;4.00;;;;;22.68;38.87;101264.41;4975192;28;46589;-80
2022/06/14 10:06:28;;;;;;;;;5.25;5.25;;;;;22.72;39.15;101267.63;4958384;28;46100;-80
2022/06/14 10:12:28;;;;;;;;;6.00;5.00;;;;;22.84;38.46;101279.56;4974584;28;45657;-81
2022/06/14 10:14:59;;;;;;;;;3.75;3.75;;;;;22.87;38.50;101268.56;4957958;28;47479;-82
2022/06/14 10:17:30;;;;;;;;;5.50;5.50;;;;;22.92;38.40;101268.88;5001527;28;48421;-81
2022/06/14 10:19:55;;;;;;;;;7.00;6.00;;;;;22.96;38.75;101259.50;5036202;28;45584;-81
2022/06/14 10:29:36;;;;;;;;;6.25;4.00;;;;;23.07;38.73;101260.94;5035728;28;45652;-81
2022/06/14 10:32:19;;;;;;;;;5.75;5.00;;;;;23.10;37.87;101252.59;5014867;28;45583;-80
2022/06/14 10:35:26;;;;;;;;;6.00;5.75;;;;;23.13;37.54;101250.41;5036001;28;45457;-80
2022/06/14 10:41:38;;;;;;;;;4.75;4.75;;;;;23.07;37.19;101229.72;5054871;28;45883;-80
2022/06/14 10:44:19;;;;;;;;;5.25;5.25;;;;;23.13;36.68;101245.06;5037562;28;45524;-82
2022/06/14 10:47:26;;;;;;;;;5.75;4.25;;;;;23.10;37.27;101231.22;5038285;28;45833;-82
2022/06/14 10:49:57;;;;;;;;;5.00;4.00;;;;;23.21;37.79;101238.84;4919544;28;47200;-80
2022/06/14 10:53:24;;;;;;;;;4.75;4.75;;;;;23.26;36.73;101226.59;4935710;28;46111;-79
2022/06/14 10:56:05;;;;;;;;;6.50;6.00;;;;;23.32;37.56;101227.75;4841390;29;45746;-80
2022/06/14 10:58:48;;;;;;;;;7.00;7.00;;;;;23.35;37.36;101227.38;4841103;29;45632;-82
2022/06/14 11:01:37;;;;;;;;;7.25;6.00;;;;;23.40;36.84;101227.69;4840798;29;47618;-81
2022/06/14 11:04:08;;;;;;;;;7.00;6.25;;;;;23.36;36.28;101211.16;4841086;29;45725;-80
2022/06/14 11:06:54;;;;;;;;;8.25;7.00;;;;;23.43;36.60;101216.63;4839941;29;45789;-81
2022/06/14 11:09:32;;;;;;;;;7.25;6.00;;;;;23.46;36.45;101210.97;4841032;29;45718;-81
2022/06/14 11:12:25;;;;;;;;;7.00;6.25;;;;;23.49;36.46;101202.56;4840713;29;45824;-81
2022/06/14 11:15:04;;;;;;;;;6.25;6.00;;;;;23.50;36.98;101192.69;4840911;29;45628;-78
2022/06/14 11:17:41;;;;;;;;;6.00;6.00;;;;;23.56;37.25;101192.81;4840400;29;45691;-80
2022/06/14 11:20:16;;;;;;;;;7.25;7.25;;;;;23.61;37.34;101192.28;4840470;29;45652;-78
2022/06/14 11:26:08;;;;;;;;;7.00;6.75;;;;;23.69;37.05;101174.31;4858493;28;45763;-78
2022/06/14 11:28:55;;;;;;;;;7.00;7.00;;;;;23.78;36.93;101175.06;4994209;28;45784;-80
2022/06/14 11:31:39;;;;;;;;;7.25;6.50;;;;;23.84;37.15;101175.19;5002340;28;45732;-79
2022/06/14 11:34:28;;;;;;;;;8.00;8.00;;;;;23.90;36.76;101170.97;5054988;28;45725;-79
2022/06/14 11:37:26;;;;;;;;;7.75;7.00;;;;;23.96;37.05;101180.09;5036178;28;46472;-81
2022/06/14 11:44:11;;;;;;;;;7.50;7.25;;;;;24.01;36.34;101158.97;5055289;28;45669;-81
2022/06/14 11:47:01;;;;;;;;;6.25;6.00;;;;;24.03;36.43;101162.28;5036892;28;47766;-86
2022/06/14 11:49:48;;;;;;;;;7.00;6.25;;;;;24.06;36.30;101153.91;5055330;28;46389;-83
2022/06/14 11:52:56;;;;;;;;;6.50;6.00;;;;;24.08;36.42;101147.31;5036935;28;45950;-82
2022/06/14 11:59:14;;;;;;;;;7.25;7.00;;;;;24.17;36.33;101140.06;4993463;28;45609;-82
2022/06/14 12:01:57;;;;;;;;;5.25;5.25;;;;;24.24;36.13;101149.03;4992939;28;45960;-81
2022/06/14 12:04:47;;;;;;;;;6.00;5.25;;;;;24.29;35.69;101141.28;5008781;28;45814;-79
2022/06/14 12:07:23;;;;;;;;;5.50;5.00;;;;;24.34;35.99;101130.84;5009157;28;45732;-84
2022/06/14 12:09:48;;;;;;;;;6.25;5.50;;;;;24.38;35.87;101140.19;4993069;28;46708;-79
2022/06/14 12:12:15;;;;;;;;;7.00;7.00;;;;;24.42;35.55;101143.31;4992874;28;46420;-87
2022/06/14 12:14:55;;;;;;;;;7.00;6.50;;;;;24.45;35.43;101134.91;4993270;28;45684;-82
2022/06/14 12:17:33;;;;;;;;;5.00;4.75;;;;;24.47;35.82;101136.38;5010193;28;45639;-80
2022/06/14 12:20:06;;;;;;;;;7.50;7.00;;;;;24.48;35.75;101132.69;4992673;28;46453;-80
2022/06/14 12:23:04;;;;;;;;;7.25;6.50;;;;;24.56;36.00;101123.72;5008463;28;47269;-81
2022/06/14 12:28:57;;;;;;;;;7.25;6.75;;;;;24.61;35.77;101102.53;4992323;28;45679;-81
2022/06/14 12:31:44;;;;;;;;;5.25;5.00;;;;;24.73;35.67;101101.00;4997519;28;45680;-84
2022/06/14 12:34:22;;;;;;;;;5.75;5.75;;;;;24.73;34.67;101090.28;5054330;28;46589;-85
2022/06/14 12:37:18;;;;;;;;;6.50;6.25;;;;;24.77;35.00;101094.28;5054252;28;45606;-82
2022/06/14 12:43:08;;;;;;;;;7.00;6.50;;;;;24.84;35.03;101084.44;5039823;28;45633;-80
2022/06/14 12:45:44;;;;;;;;;6.00;5.75;;;;;24.82;34.77;101081.13;5033922;28;45633;-81
2022/06/14 12:48:21;;;;;;;;;7.00;6.00;;;;;24.91;35.20;101082.69;5034168;28;45465;-82
2022/06/14 12:50:56;;;;;;;;;4.25;3.75;;;;;24.97;35.38;101091.81;5034331;28;45646;-82
2022/06/14 12:53:37;;;;;;;;;6.25;6.25;;;;;25.04;34.81;101090.06;5033776;28;45534;-79
2022/06/14 13:00:01;;;;;;;;;5.75;5.75;;;;;25.15;34.75;101094.91;5034294;28;45601;-79
2022/06/14 13:02:32;;;;;;;;;7.50;6.50;;;;;25.20;34.25;101088.97;5016095;28;45628;-82
2022/06/14 13:05:11;;;;;;;;;6.25;5.50;;;;;25.20;34.21;101091.63;5033967;28;46644;-80
2022/06/14 13:07:48;;;;;;;;;7.00;5.00;;;;;25.27;34.27;101092.50;5033918;28;45456;-79
2022/06/14 13:10:24;;;;;;;;;8.00;7.00;;;;;25.32;33.67;101090.06;5015618;28;45682;-80
2022/06/14 13:13:11;;;;;;;;;5.75;5.00;;;;;25.39;33.20;101080.25;5033909;28;45749;-80
2022/06/14 13:16:06;;;;;;;;;4.00;3.75;;;;;25.45;33.00;101084.84;5033924;28;46428;-80
2022/06/14 13:18:57;;;;;;;;;5.50;5.00;;;;;25.52;33.20;101080.34;4952473;28;45977;-79
2022/06/14 13:21:51;;;;;;;;;5.75;5.00;;;;;25.59;33.54;101080.44;4953656;28;45755;-81
2022/06/14 13:28:14;;;;;;;;;5.00;5.00;;;;;25.78;33.32;101077.88;4955833;28;45733;-80
2022/06/14 13:30:52;;;;;;;;;5.00;4.75;;;;;25.85;32.63;101072.56;4939655;28;47959;-79
2022/06/14 13:33:23;;;;;;;;;5.25;4.75;;;;;25.92;32.73;101070.72;4956232;28;45703;-82
2022/06/14 13:35:59;;;;;;;;;5.25;5.25;;;;;25.97;32.34;101065.59;4956466;28;45778;-80
2022/06/14 13:38:30;;;;;;;;;4.75;4.75;;;;;26.03;32.82;101064.81;4956498;28;45803;-83
2022/06/14 13:44:23;;;;;;;;;6.75;5.50;;;;;26.17;32.49;101049.59;4984585;28;45842;-81
2022/06/14 13:47:02;;;;;;;;;7.00;7.00;;;;;26.15;31.47;101028.28;4995515;28;45801;-81
2022/06/14 13:49:44;;;;;;;;;6.00;5.50;;;;;26.24;32.73;101037.84;4994924;28;45586;-83
2022/06/14 13:52:19;;;;;;;;;6.50;5.50;;;;;26.19;32.73;101015.28;4994939;28;46158;-82
2022/06/14 13:58:20;;;;;;;;;6.00;5.75;;;;;26.32;32.78;101020.75;5036725;28;45485;-82
2022/06/14 14:00:58;;;;;;;;;7.00;6.00;;;;;26.41;33.01;101022.22;5036920;28;45532;-83
2022/06/14 14:03:41;;;;;;;;;6.00;6.00;;;;;26.45;31.64;101025.34;5036923;28;46528;-83
2022/06/14 14:06:30;;;;;;;;;6.25;6.00;;;;;26.45;32.03;101017.28;5036962;28;45485;-81
2022/06/14 14:09:23;;;;;;;;;6.00;6.00;;;;;26.46;32.58;101011.69;5018795;28;45841;-80
2022/06/14 14:15:35;;;;;;;;;5.25;5.00;;;;;26.56;32.66;101017.50;5036473;28;45675;-82